ADDS METAR Data INFO
IDs: Format: Raw Decoded Include TAF

Data at: 0457 UTC 18 Feb 2018

KGPI 180440Z 02029G37KT 1/2SM BLSN SCT016 OVC037 M09/M11 A2946 RMK AO2 PK WND 02037/0434 T10941106 $
KGPI 180429Z 02029G37KT 1/2SM BLSN BKN010 OVC039 M09/M11 A2945 RMK AO2 PK WND 02037/0429 T10891106 $
KGPI 180355Z 02030G35KT 1/4SM BLSN VV008 M08/M09 A2945 RMK AO2 PK WND 03039/0326 SLP011 T10781094 $
KGPI 180337Z 02029G38KT 1/2SM BLSN BKN011 OVC020 M08/M10 A2941 RMK AO2 PK WND 03039/0326 T10831100 $
KGPI 180334Z 01029G39KT 1/4SM BLSN BKN009 OVC018 M08/M10 A2941 RMK AO2 PK WND 03039/0326 T10831100 $
KGPI 180303Z 03026G32KT 1/2SM FU VV007 M07/M09 A2939 RMK AO2 PK WND 03032/0303 T10721089 $
KGPI 180255Z 03025G32KT 1/4SM BLSN BKN008 OVC017 M07/M09 A2938 RMK AO2 PK WND 03034/0220 SLP988 P0002 60007 T10721089 57002 $
KGPI 180243Z 03025G32KT 3/4SM BLSN BKN012 OVC017 M07/M08 A2939 RMK AO2 PK WND 03034/0220 P0002 T10671083 $
KGPI 180239Z 04027G32KT 1 1/2SM BLSN OVC014 M07/M09 A2939 RMK AO2 PK WND 03034/0220 P0001 T10671089 $
KGPI 180229Z 04025G34KT 1SM BLSN BKN012 OVC017 M07/M08 A2938 RMK AO2 PK WND 03034/0220 P0001 T10671083 $
KGPI 180215Z 04027G33KT 1/2SM BLSN VV006 M07/M08 A2936 RMK AO2 PK WND 04033/0202 P0001 T10671078 $
KGPI 180155Z 03024KT 1/4SM FZFG VV004 M06/M07 A2938 RMK AO2 PK WND 03028/0141 SNB0057SNEMM SLP990 P0004 T10611067 $
KGPI 180150Z 03022KT 1/4SM FZFG BKN005 OVC012 M06/M06 A2939 RMK AO2 PK WND 03028/0141 SNB0057SNEMM P0002 $
KGPI 180137Z 02020KT 1/2SM SN FZFG BKN007 OVC012 M05/M07 A2938 RMK AO2 SNB0057 P0001 T10501067
KGPI 180133Z 03018G23KT 3/4SM -SN BR OVC010 M05/M07 A2937 RMK AO2 SNB0057 P0001 T10501067
KGPI 180129Z 03016KT 1 1/2SM -SN BR OVC012 M04/M07 A2937 RMK AO2 SNB0057 P0000 T10441067
KGPI 180113Z 02012KT 5SM -SN OVC010 M04/M06 A2938 RMK AO2 SNB0057 P0000 T10391056
KGPI 180102Z 03012KT 5SM -SN OVC009 M03/M06 A2939 RMK AO2 SNB0057 P0000 T10331056
KGPI 180055Z 01010KT 1SM BR OVC009 M03/M06 A2939 RMK AO2 SNE34 SLP989 P0001 T10331056
KGPI 180047Z 01014KT 1SM BR OVC009 M03/M05 A2939 RMK AO2 SNE34 P0001 T10331050
KGPI 180022Z 01005KT 1SM -SN BR OVC010 M03/M04 A2941 RMK AO2 P0001 T10331039
KGPI 180002Z VRB05KT 3/4SM -SN BR OVC010 M03/M04 A2943 RMK AO2 P0001 T10331039
KGPI 172355Z 02005KT 1/4SM SN FZFG OVC010 M03/M04 A2942 RMK AO2 SLP004 P0005 60030 T10331039 11028 21050 56044
KGPI 172319Z 03004KT 1/4SM SN FZFG OVC009 M03/M03 A2945 RMK AO2 P0002 T10281033
KGPI 172255Z 03007KT 1/2SM SN FZFG OVC011 M03/M04 A2948 RMK AO2 SLP020 P0005 T10281039
KGPI 172229Z 02006KT 1/2SM SN FZFG FEW007 OVC011 M03/M04 A2948 RMK AO2 P0003 T10331039
KGPI 172155Z 04004KT 1/2SM SN FZFG VV010 M03/M04 A2950 RMK AO2 PRESFR SLP027 P0006 T10331039
KGPI 172126Z 03006KT 1/2SM SN FZFG VV010 M03/M04 A2954 RMK AO2 P0003 T10331039
KGPI 172114Z 04006KT 1/2SM SN FZFG VV009 M03/M04 A2955 RMK AO2 P0002 T10331039
KGPI 172055Z 03006KT 1/4SM SN FZFG VV009 M03/M04 A2957 RMK AO2 SLP049 P0006 60014 T10331039 58064
KGPI 172048Z 05004KT 1/4SM +SN FZFG VV009 M03/M04 A2957 RMK AO2 PRESFR P0005 T10331039
KGPI 172043Z 06005KT 1/2SM SN FZFG VV010 M03/M04 A2958 RMK AO2 PRESFR P0005 T10331039
KGPI 172029Z 06006KT 1/4SM SN FZFG FEW005 OVC011 M03/M03 A2960 RMK AO2 P0003 T10331033
KGPI 171955Z 04007KT 1/2SM -SN FZFG VV013 M03/M04 A2964 RMK AO2 SLP075 P0004 T10331039
KGPI 171926Z 03004KT 1/2SM -SN FZFG VV013 M03/M04 A2968 RMK AO2 P0003 T10331044
KGPI 171902Z 05005KT 1/4SM SN FZFG VV010 M04/M04 A2970 RMK AO2 P0001 T10391044
KGPI 171855Z 05004KT 1/2SM SN FZFG VV011 M04/M04 A2971 RMK AO2 SLP098 P0004 T10391044
KGPI 171810Z 01004KT 1/2SM SN FZFG VV011 M05/M06 A2976 RMK AO2 P0001 T10501056
KGPI 171755Z 02003KT 1/4SM SN FZFG VV011 M06/M06 A2977 RMK AO2 SLP121 P0004 60010 T10561056 11056 21122 58032
KGPI 171744Z 01005KT 1/2SM SN FZFG FEW008 OVC012 M06/M06 A2979 RMK AO2 P0003 T10561061
KGPI 171731Z 01005KT 1/2SM SN FZFG VV012 M06/M07 A2980 RMK AO2 P0002 T10561067
KGPI 171722Z 01004KT 1/4SM SN FZFG VV011 M06/M07 A2980 RMK AO2 P0002 T10561067
KGPI 171704Z 02003KT 1/2SM SN FZFG VV014 M06/M07 A2981 RMK AO2 P0000 T10611067
KGPI 171655Z 02004KT 1/2SM SN FZFG VV015 M07/M07 A2982 RMK AO2 SLP135 P0003 T10671072
KGPI 171648Z 03005KT 1/2SM SN FZFG VV014 M07/M07 A2982 RMK AO2 P0003 T10671072
KGPI 171605Z 00000KT 3/4SM -SN BR VV016 M07/M08 A2985 RMK AO2 P0000 T10671078
KGPI 171555Z 00000KT 1/2SM -SN FZFG VV014 M07/M08 A2985 RMK AO2 SLP146 P0003 T10671078
KGPI 171528Z 00000KT 1/4SM SN FZFG VV014 M08/M08 A2987 RMK AO2 P0001 T10781083
KGPI 171525Z 24003KT 1/2SM SN FZFG VV016 M08/M08 A2987 RMK AO2 P0001 T10781083
KGPI 171508Z 00000KT 1 1/4SM -SN BR OVC028 M08/M09 A2987 RMK AO2 P0000 T10781094
KGPI 171504Z 00000KT 1 3/4SM -SN BR OVC030 M08/M09 A2988 RMK AO2 P0000 T10781089
KGPI 171455Z 00000KT 7SM -SN OVC036 M08/M09 A2988 RMK AO2 SNB55 SLP153 P0000 60000 T10781089 58021
KGPI 171355Z AUTO 00000KT 10SM OVC070 M09/M11 A2991 RMK AO2 SLP168 T10941106
KGPI 171255Z AUTO 00000KT 10SM BKN120 M11/M12 A2993 RMK AO2 SLP176 T11111122
KGPI 171155Z AUTO 00000KT 10SM CLR M12/M13 A2995 RMK AO2 SLP180 70006 I6000 T11221133 11061 21122 58005
KGPI 171055Z AUTO 00000KT 8SM CLR M11/M12 A2996 RMK AO2 SLP186 T11111122
KGPI 170955Z AUTO 29003KT 9SM CLR M09/M10 A2997 RMK AO2 SLP185 T10891100
KGPI 170924Z AUTO 36003KT 4SM BR SCT001 M08/M10 A2996 RMK AO2 T10831100
KGPI 170914Z AUTO 01003KT 3SM BR BKN001 M09/M09 A2996 RMK AO2 T10891094
KGPI 170912Z AUTO 02003KT 1 3/4SM BR BKN001 M09/M09 A2996 RMK AO2 T10891089
KGPI 170857Z AUTO 02005KT 1/2SM FZFG BKN001 BKN070 M09/M09 A2996 RMK AO2 T10891094
KGPI 170855Z AUTO 02004KT 1SM BR SCT001 BKN070 M09/M09 A2996 RMK AO2 SLP184 I3000 T10891094 53009
KGPI 170850Z AUTO 02003KT 1 1/2SM BR SCT001 OVC070 M08/M10 A2996 RMK AO2
KGPI 170837Z AUTO 01003KT 1/2SM FZFG FEW001 OVC070 M08/M08 A2996 RMK AO2 T10831083
KGPI 170823Z AUTO 02003KT 3/4SM BR FEW010 OVC070 M08/M09 A2996 RMK AO2 T10831094
KGPI 170820Z AUTO 02003KT 1 3/4SM BR FEW010 OVC075 M08/M09 A2996 RMK AO2 VIS 1 NE T10831094
KGPI 170816Z AUTO 02003KT 3SM BR FEW008 OVC075 M08/M09 A2996 RMK AO2 VIS 1 NE T10831094
KGPI 170814Z AUTO 00000KT 1 3/4SM BR FEW006 OVC075 M08/M09 A2996 RMK AO2 VIS 3/4 NE T10831089
KGPI 170810Z AUTO 00000KT 3/4SM BR FEW004 OVC075 M08/M08 A2996 RMK AO2 T10831083
KGPI 170755Z AUTO 00000KT 1/4SM FZFG SCT001 BKN080 M09/M09 A2995 RMK AO2 SLP179 I1000 T10941094
KGPI 170743Z AUTO 00000KT 1/4SM FZFG SCT001 SCT070 BKN085 M10/M11 A2995 RMK AO2 I1000 T11001106
KGPI 170729Z AUTO 00000KT 3/4SM BR FEW001 SCT070 SCT080 M08/M08 A2995 RMK AO2 VIS 1/2V5 T10831083
KGPI 170723Z AUTO 00000KT 1 1/2SM BR SCT080 M09/M09 A2995 RMK AO2 VIS 3/4 NE T10891089
KGPI 170655Z 00000KT 10SM OVC080 M07/M08 A2994 RMK AO2 VIS 1/2 NE SLP173 I1000 T10721078 400061094
KGPI 170555Z 00000KT 10SM BKN065 M07/M07 A2993 RMK AO2 SLP171 I1001 I6001 T10671067 11006 21078 53014
KGPI 170502Z 00000KT 10SM FEW033 BKN060 M06/M06 A2991 RMK AO2 T10561061
KGPI 170455Z 00000KT 1SM BR FEW022 BKN060 M06/M07 A2991 RMK AO2 SLP165 I1000 T10611067
KGPI 170452Z 00000KT 1 3/4SM BR FEW010 BKN060 M06/M06 A2991 RMK AO2 I1000
KGPI 170355Z 22003KT 10SM BKN110 M04/M04 A2990 RMK AO2 SLP159 T10391039
KGPI 170255Z 17006KT 10SM BKN100 OVC110 M02/M02 A2989 RMK AO2 SLP156 T10171022 51012
KGPI 170234Z 22005KT 10SM BKN120 M03/M03 A2989 RMK AO2 T10281028
KGPI 170226Z 22004KT 2 1/2SM BR SCT120 M02/M03 A2989 RMK AO2 T10221033
KGPI 170155Z 00000KT 10SM OVC065 M03/M03 A2989 RMK AO2 SLP156 T10281033
KGPI 170103Z 17006KT 10SM FEW012 OVC060 M01/M02 A2987 RMK AO2 T10111017
KGPI 170055Z 16006KT 10SM BKN012 OVC055 M01/M01 A2986 RMK AO2 SLP146 T10111011
KGPI 162355Z AUTO 13006KT 9SM BKN012 OVC048 M01/M01 A2985 RMK AO2 SNE51 SLP141 P0000 60006 T10061011 10006 21011 51004
KGPI 162352Z AUTO 14007KT 8SM BKN012 OVC048 M01/M01 A2985 RMK AO2 SNE51 P0000
KGPI 162320Z 16008KT 3SM -SN BR SCT038 BKN048 OVC060 M01/M01 A2984 RMK AO2 P0000 T10061011
KGPI 162314Z 16008KT 2SM -SN BR BKN029 BKN048 OVC055 M01/M01 A2984 RMK AO2 P0000 T10061011
KGPI 162255Z 17008KT 1 1/4SM -SN BR FEW006 BKN020 OVC031 M01/M01 A2984 RMK AO2 SLP135 P0003 T10061011
KGPI 162250Z 17008KT 1SM -SN BR FEW008 OVC020 M01/M01 A2984 RMK AO2 P0003
KGPI 162243Z 17008KT 3/4SM -SN BR FEW010 OVC016 M01/M01 A2983 RMK AO2 P0003 T10061011
KGPI 162155Z 18008KT 1/2SM SN FZFG FEW005 OVC013 M01/M01 A2983 RMK AO2 SLP133 P0002 T10111011
KGPI 162153Z 18008KT 1/2SM SN FZFG FEW005 OVC013 M01/M02 A2983 RMK AO2 P0002
KGPI 162103Z 17010KT 1/2SM SN FZFG FEW005 OVC017 M01/M02 A2984 RMK AO2 P0000 T10111017
KGPI 162055Z 17010KT 1/2SM -SN FZFG VV017 M01/M02 A2985 RMK AO2 SLP141 P0001 60001 T10111017 58031
KGPI 162034Z 17011KT 3/4SM -SN BR BKN020 OVC026 M01/M02 A2986 RMK AO2 P0000 T10061022
KGPI 162017Z 17009KT 1 1/4SM -SN BR OVC025 M01/M03 A2987 RMK AO2 P0000 T10061028
KGPI 162009Z 17010KT 1 1/2SM -SN BR BKN025 OVC035 M01/M03 A2988 RMK AO2 P0000 T10061028
KGPI 162006Z 17012KT 2SM -SN BR SCT023 BKN030 OVC037 M01/M03 A2988 RMK AO2 P0000 T10061028
KGPI 162004Z 17011KT 3SM -SN BR BKN023 OVC037 M01/M03 A2988 RMK AO2 P0000 T10061028
KGPI 161955Z 17011KT 6SM -SN SCT023 BKN033 OVC045 00/M03 A2988 RMK AO2 SNB53 SLP155 P0000 T00001033
KGPI 161918Z 20008KT 10SM FEW027 BKN035 OVC070 00/M04 A2991 RMK AO2 T00001039
KGPI 161855Z 17010KT 10SM BKN027 OVC034 00/M04 A2992 RMK AO2 SLP167 T00001039
KGPI 161848Z 16010KT 10SM BKN027 OVC034 00/M04 A2992 RMK AO2 T00001039
KGPI 161755Z 16008KT 10SM SCT034 BKN044 OVC070 M01/M04 A2995 RMK AO2 SNE27 SLP178 P0000 60000 T10111039 11011 21067 58016